createdAt,value
2019-04-10T00:00:39.356Z,35.93
2019-04-10T00:03:08.279Z,38.80
2019-04-10T00:05:36.921Z,43.83
2019-04-10T00:08:06.176Z,40.30
2019-04-10T00:10:36.097Z,39.33
2019-04-10T00:13:04.867Z,40.60
2019-04-10T00:15:33.083Z,32.60
2019-04-10T00:18:01.963Z,32.70
2019-04-10T00:20:30.580Z,36.97
2019-04-10T00:23:00.160Z,36.37
2019-04-10T00:25:28.866Z,37.13
2019-04-10T00:27:57.441Z,35.23
2019-04-10T00:30:27.055Z,41.50
2019-04-10T00:32:56.438Z,39.37
2019-04-10T00:35:25.575Z,37.80
2019-04-10T00:37:54.184Z,40.57
2019-04-10T00:40:23.542Z,39.27
2019-04-10T00:42:52.309Z,42.60
2019-04-10T00:45:21.636Z,34.73
2019-04-10T00:47:51.099Z,40.50
2019-04-10T00:50:20.213Z,41.17
2019-04-10T00:52:48.820Z,40.07
2019-04-10T00:55:17.568Z,43.77
2019-04-10T00:57:46.240Z,34.07
2019-04-10T01:00:15.292Z,39.23
2019-04-10T01:02:43.544Z,41.00
2019-04-10T01:05:13.123Z,41.37
2019-04-10T01:07:44.152Z,42.50
2019-04-10T01:10:14.302Z,39.73
2019-04-10T01:12:44.022Z,38.93
2019-04-10T01:15:12.784Z,37.07
2019-04-10T01:17:42.328Z,38.70
2019-04-10T01:20:11.354Z,36.90
2019-04-10T01:22:39.933Z,37.10
2019-04-10T01:25:08.323Z,39.63
2019-04-10T01:27:36.901Z,38.03
2019-04-10T01:30:07.270Z,44.63
2019-04-10T01:32:36.957Z,41.97
2019-04-10T01:35:07.756Z,37.90
2019-04-10T01:37:48.430Z,39.67
2019-04-10T01:40:07.944Z,40.80
2019-04-10T01:42:36.859Z,40.87
2019-04-10T01:45:09.247Z,43.40
2019-04-10T01:47:37.920Z,37.10
2019-04-10T01:50:06.673Z,39.93
2019-04-10T01:52:35.409Z,38.40
2019-04-10T01:55:17.301Z,43.27
2019-04-10T01:57:34.592Z,46.53
2019-04-10T02:00:04.620Z,40.77
2019-04-10T02:02:37.797Z,36.97
2019-04-10T02:05:06.713Z,42.00
2019-04-10T02:07:35.257Z,39.40
2019-04-10T02:10:05.893Z,37.53
2019-04-10T02:12:34.651Z,41.37
2019-04-10T02:15:04.785Z,34.20
2019-04-10T02:17:33.449Z,45.77
2019-04-10T02:20:02.943Z,43.50
2019-04-10T02:22:31.663Z,47.23
2019-04-10T02:25:00.204Z,36.50
2019-04-10T02:27:28.776Z,40.40
2019-04-10T02:29:57.939Z,46.27
2019-04-10T02:32:28.202Z,47.93
2019-04-10T02:34:57.522Z,48.17
2019-04-10T02:37:27.092Z,44.47
2019-04-10T02:39:58.856Z,45.97
2019-04-10T02:42:26.783Z,44.77
2019-04-10T02:44:55.175Z,46.17
2019-04-10T02:47:23.758Z,50.93
2019-04-10T02:49:52.318Z,47.93
2019-04-10T02:52:22.442Z,48.37
2019-04-10T02:54:51.200Z,47.87
2019-04-10T02:57:21.366Z,46.30
2019-04-10T02:59:51.194Z,48.30
2019-04-10T03:02:20.277Z,43.13
2019-04-10T03:04:49.250Z,48.90
2019-04-10T03:07:17.999Z,55.57
2019-04-10T03:10:00.880Z,46.57
2019-04-10T03:12:16.837Z,44.03
2019-04-10T03:14:47.473Z,48.03
2019-04-10T03:17:15.736Z,48.63
2019-04-10T03:19:44.276Z,49.37
2019-04-10T03:22:12.857Z,47.00
2019-04-10T03:24:41.397Z,50.63
2019-04-10T03:27:10.150Z,48.20
2019-04-10T03:29:39.933Z,54.23
2019-04-10T03:32:30.999Z,45.93
2019-04-10T03:34:58.534Z,47.73
2019-04-10T03:37:27.151Z,49.77
2019-04-10T03:39:55.373Z,57.73
2019-04-10T03:42:23.946Z,40.67
2019-04-10T03:44:52.493Z,55.37
2019-04-10T03:47:21.071Z,49.70
2019-04-10T03:49:49.828Z,47.27
2019-04-10T03:52:19.030Z,52.20
2019-04-10T03:54:48.139Z,50.73
2019-04-10T03:57:16.805Z,56.10
2019-04-10T03:59:45.469Z,57.37
2019-04-10T04:02:14.101Z,52.40
2019-04-10T04:04:42.643Z,55.47
2019-04-10T04:07:11.305Z,56.17
2019-04-10T04:09:39.936Z,48.97
2019-04-10T04:12:08.500Z,56.70
2019-04-10T04:14:37.061Z,60.97
2019-04-10T04:17:06.087Z,52.10
2019-04-10T04:19:34.761Z,57.27
2019-04-10T04:22:03.998Z,49.50
2019-04-10T04:24:33.561Z,58.40
2019-04-10T04:27:02.756Z,54.73
2019-04-10T04:29:32.474Z,57.23
2019-04-10T04:32:01.200Z,52.43
2019-04-10T04:34:29.824Z,61.60
2019-04-10T04:36:58.400Z,56.23
2019-04-10T04:39:28.486Z,53.70
2019-04-10T04:41:57.170Z,49.83
2019-04-10T04:44:25.384Z,62.60
2019-04-10T04:46:53.961Z,55.27
2019-04-10T04:49:22.502Z,61.17
2019-04-10T04:51:51.080Z,60.17
2019-04-10T04:54:19.618Z,56.40
2019-04-10T04:56:48.382Z,61.20
2019-04-10T04:59:17.043Z,52.80
2019-04-10T05:01:45.617Z,52.40
2019-04-10T05:04:15.116Z,56.00
2019-04-10T05:06:43.902Z,61.97
2019-04-10T05:09:17.034Z,58.30
2019-04-10T05:11:42.743Z,62.37
2019-04-10T05:14:11.228Z,56.70
2019-04-10T05:16:39.784Z,56.03
2019-04-10T05:19:08.334Z,72.70
2019-04-10T05:21:37.277Z,67.97
2019-04-10T05:24:05.891Z,63.80
2019-04-10T05:26:34.425Z,53.90
2019-04-10T05:29:02.999Z,63.33
2019-04-10T05:31:32.213Z,60.20
2019-04-10T05:34:00.875Z,64.37
2019-04-10T05:36:29.437Z,60.80
2019-04-10T05:38:58.020Z,59.23
2019-04-10T05:41:26.229Z,65.63
2019-04-10T05:43:55.037Z,54.83
2019-04-10T05:46:23.320Z,63.37
2019-04-10T05:48:52.555Z,50.80
2019-04-10T05:51:21.428Z,69.10
2019-04-10T05:53:52.787Z,45.97
2019-04-10T05:56:20.678Z,60.33
2019-04-10T05:58:49.365Z,65.13
2019-04-10T06:01:30.011Z,55.70
2019-04-10T06:03:49.096Z,60.83
2019-04-10T06:06:17.755Z,53.50
2019-04-10T06:08:47.067Z,57.50
2019-04-10T06:11:17.018Z,55.83
2019-04-10T06:13:45.760Z,54.27
2019-04-10T06:16:15.297Z,51.17
2019-04-10T06:18:45.077Z,60.90
2019-04-10T06:21:14.657Z,57.07
2019-04-10T06:23:43.494Z,60.30
2019-04-10T06:26:12.581Z,56.97
2019-04-10T06:28:42.192Z,58.47
2019-04-10T06:31:10.905Z,57.90
2019-04-10T06:33:40.317Z,66.73
2019-04-10T06:36:09.202Z,56.03
2019-04-10T06:38:37.881Z,63.55
2019-04-10T06:41:06.898Z,67.53
2019-04-10T06:43:35.446Z,65.83
2019-04-10T06:46:04.340Z,54.87
2019-04-10T06:48:34.106Z,58.80
2019-04-10T06:51:03.906Z,60.97
2019-04-10T06:53:33.159Z,62.13
2019-04-10T06:56:02.821Z,58.87
2019-04-10T06:58:31.880Z,58.63
2019-04-10T07:01:01.764Z,60.93
2019-04-10T07:03:45.886Z,63.73
2019-04-10T07:06:09.939Z,60.83
2019-04-10T07:08:31.975Z,58.47
2019-04-10T07:11:07.778Z,60.90
2019-04-10T07:13:30.575Z,57.40
2019-04-10T07:15:59.955Z,63.17
2019-04-10T07:18:28.599Z,62.37
2019-04-10T07:20:59.904Z,65.70
2019-04-10T07:23:29.247Z,62.33
2019-04-10T07:25:56.927Z,55.00
2019-04-10T07:28:25.709Z,55.73
2019-04-10T07:30:56.802Z,57.47
2019-04-10T07:33:24.642Z,58.97
2019-04-10T07:35:55.165Z,71.17
2019-04-10T07:38:24.580Z,59.93
2019-04-10T07:40:53.316Z,66.13
2019-04-10T07:43:25.818Z,60.63
2019-04-10T07:45:52.166Z,52.97
2019-04-10T07:48:20.566Z,62.67
2019-04-10T07:50:51.601Z,59.47
2019-04-10T07:53:20.204Z,64.03
2019-04-10T07:55:58.446Z,60.33
2019-04-10T07:58:19.495Z,62.37
2019-04-10T08:00:49.758Z,58.80
2019-04-10T08:03:18.836Z,63.60
2019-04-10T08:05:48.122Z,67.53
2019-04-10T08:08:17.129Z,48.17
2019-04-10T08:10:45.772Z,66.37
2019-04-10T08:13:14.353Z,54.20
2019-04-10T08:15:43.316Z,61.20
2019-04-10T08:18:12.291Z,65.80
2019-04-10T08:20:40.960Z,60.30
2019-04-10T08:23:10.223Z,64.37
2019-04-10T08:25:39.035Z,64.22
2019-04-10T08:28:07.357Z,72.67
2019-04-10T08:30:36.346Z,67.27
2019-04-10T08:33:06.102Z,69.47
2019-04-10T08:35:35.732Z,61.97
2019-04-10T08:38:05.407Z,64.97
2019-04-10T08:40:34.245Z,78.20
2019-04-10T08:43:04.052Z,54.97
2019-04-10T08:45:40.588Z,68.63
2019-04-10T08:48:03.592Z,64.03
2019-04-10T08:50:32.258Z,64.83
2019-04-10T08:53:01.984Z,64.90
2019-04-10T08:55:30.696Z,60.27
2019-04-10T08:57:59.275Z,66.20
2019-04-10T09:00:28.834Z,60.73
2019-04-10T09:02:58.154Z,73.62
2019-04-10T09:05:27.808Z,65.67
2019-04-10T09:07:56.928Z,66.37
2019-04-10T09:10:26.065Z,66.07
2019-04-10T09:12:55.899Z,56.77
2019-04-10T09:15:25.746Z,55.43
2019-04-10T09:17:55.567Z,64.63
2019-04-10T09:20:24.800Z,58.13
2019-04-10T09:23:14.458Z,62.07
2019-04-10T09:25:24.584Z,58.87
2019-04-10T09:27:53.924Z,69.20
2019-04-10T09:30:22.737Z,64.30
2019-04-10T09:32:51.301Z,70.37
2019-04-10T09:35:20.428Z,69.57
2019-04-10T09:37:48.899Z,59.03
2019-04-10T09:40:18.334Z,57.13
2019-04-10T09:42:47.977Z,62.77
2019-04-10T09:45:16.356Z,64.83
2019-04-10T09:47:45.838Z,52.00
2019-04-10T09:50:15.181Z,60.23
2019-04-10T09:52:44.064Z,59.30
2019-04-10T09:55:13.897Z,73.10
2019-04-10T09:58:00.051Z,70.47
2019-04-10T10:00:29.918Z,61.43
2019-04-10T10:02:59.328Z,59.50
2019-04-10T10:05:28.587Z,64.87
2019-04-10T10:07:57.988Z,63.27
2019-04-10T10:10:26.598Z,63.03
2019-04-10T10:12:55.145Z,60.57
2019-04-10T10:15:23.725Z,69.33
2019-04-10T10:17:52.840Z,56.23
2019-04-10T10:20:21.825Z,65.50
2019-04-10T10:22:51.447Z,63.13
2019-04-10T10:25:21.432Z,67.47
2019-04-10T10:27:50.957Z,69.97
2019-04-10T10:30:20.628Z,63.47
2019-04-10T10:32:49.180Z,61.07
2019-04-10T10:35:18.811Z,59.43
2019-04-10T10:37:48.452Z,54.83
2019-04-10T10:40:17.776Z,65.23
2019-04-10T10:42:47.626Z,64.90
2019-04-10T10:45:16.853Z,56.47
2019-04-10T10:47:46.368Z,69.80
2019-04-10T10:50:15.219Z,60.20
2019-04-10T10:52:43.894Z,67.27
2019-04-10T10:55:12.164Z,55.27
2019-04-10T10:57:41.555Z,69.60
2019-04-10T11:00:13.221Z,60.07
2019-04-10T11:02:41.849Z,62.93
2019-04-10T11:05:10.780Z,70.67
2019-04-10T11:07:40.414Z,64.10
2019-04-10T11:10:10.689Z,59.93
2019-04-10T11:12:39.187Z,63.83
2019-04-10T11:15:08.418Z,56.97
2019-04-10T11:17:38.460Z,60.10
2019-04-10T11:20:10.194Z,61.27
2019-04-10T11:22:39.948Z,55.07
2019-04-10T11:25:08.708Z,57.30
2019-04-10T11:27:37.280Z,56.13
2019-04-10T11:30:08.239Z,57.50
2019-04-10T11:32:38.230Z,60.33
2019-04-10T11:35:07.812Z,67.63
2019-04-10T11:37:43.843Z,54.97
2019-04-10T11:40:08.761Z,65.90
2019-04-10T11:42:39.734Z,63.30
2019-04-10T11:45:10.556Z,56.43
2019-04-10T11:47:39.752Z,57.30
2019-04-10T11:52:44.752Z,62.37
2019-04-10T11:55:13.924Z,61.37
2019-04-10T11:57:41.761Z,61.30
2019-04-10T12:02:44.998Z,64.50
2019-04-10T12:05:18.180Z,63.90
2019-04-10T12:08:09.045Z,58.40
2019-04-10T12:12:41.997Z,54.57
2019-04-10T12:15:10.717Z,52.30
2019-04-10T12:17:40.217Z,63.67
2019-04-10T12:20:09.348Z,63.30
2019-04-10T12:22:37.950Z,62.20
2019-04-10T12:25:06.984Z,60.27
2019-04-10T12:27:35.579Z,52.43
2019-04-10T12:30:10.870Z,58.50
2019-04-10T12:32:39.522Z,66.87
2019-04-10T12:35:08.848Z,59.17
2019-04-10T12:37:37.362Z,66.83
2019-04-10T12:40:07.741Z,58.33
2019-04-10T12:42:36.578Z,62.73
2019-04-10T12:45:06.725Z,63.50
2019-04-10T12:47:34.969Z,65.63
2019-04-10T12:50:05.794Z,56.90
2019-04-10T12:52:34.625Z,58.33
2019-04-10T12:55:04.006Z,66.57
2019-04-10T12:57:32.669Z,61.93
2019-04-10T13:00:11.879Z,51.87
2019-04-10T13:02:40.795Z,54.10
2019-04-10T13:05:09.526Z,62.37
2019-04-10T13:07:38.096Z,65.33
2019-04-10T13:10:08.590Z,60.33
2019-04-10T13:12:37.645Z,65.77
2019-04-10T13:15:10.998Z,63.17
2019-04-10T13:17:40.660Z,66.20
2019-04-10T13:20:12.272Z,61.73
2019-04-10T13:22:40.897Z,60.33
2019-04-10T13:25:10.252Z,62.03
2019-04-10T13:27:39.179Z,62.30
2019-04-10T13:30:12.657Z,57.83
2019-04-10T13:32:40.628Z,72.20
2019-04-10T13:35:10.343Z,54.47
2019-04-10T13:37:39.068Z,62.00
2019-04-10T13:40:08.291Z,61.40
2019-04-10T13:42:37.173Z,67.93
2019-04-10T13:45:07.985Z,71.30
2019-04-10T13:47:36.657Z,70.47
2019-04-10T13:50:09.243Z,59.77
2019-04-10T13:52:40.467Z,58.13
2019-04-10T13:55:10.226Z,66.10
2019-04-10T13:57:39.215Z,59.60
2019-04-10T14:00:11.366Z,57.93
2019-04-10T14:02:40.141Z,72.00
2019-04-10T14:05:11.670Z,56.77
2019-04-10T14:07:40.181Z,70.30
2019-04-10T14:10:10.609Z,66.10
2019-04-10T14:12:39.232Z,68.63
2019-04-10T14:15:09.815Z,70.07
2019-04-10T14:17:38.556Z,69.37
2019-04-10T14:20:07.405Z,75.60
2019-04-10T14:22:37.917Z,70.43
2019-04-10T14:25:09.471Z,60.40
2019-04-10T14:27:38.659Z,61.50
2019-04-10T14:30:11.315Z,61.47
2019-04-10T14:32:45.191Z,62.77
2019-04-10T14:35:14.798Z,61.67
2019-04-10T14:37:43.491Z,62.63
2019-04-10T14:40:13.780Z,57.43
2019-04-10T14:42:42.519Z,59.43
2019-04-10T14:45:11.154Z,58.70
2019-04-10T14:47:39.841Z,62.87
2019-04-10T14:50:09.426Z,68.90
2019-04-10T14:52:38.023Z,59.93
2019-04-10T14:55:06.844Z,64.63
2019-04-10T14:57:35.490Z,66.40
2019-04-10T15:00:08.608Z,59.77
2019-04-10T15:02:37.172Z,66.20
2019-04-10T15:05:07.924Z,67.57
2019-04-10T15:07:37.258Z,52.93
2019-04-10T15:10:06.936Z,64.27
2019-04-10T15:12:35.159Z,61.83
2019-04-10T15:15:04.978Z,69.50
2019-04-10T15:17:33.195Z,66.53
2019-04-10T15:20:01.788Z,67.93
2019-04-10T15:22:30.357Z,59.33
2019-04-10T15:24:59.346Z,68.10
2019-04-10T15:27:29.160Z,61.40
2019-04-10T15:29:57.805Z,64.90
2019-04-10T15:32:26.387Z,72.10
2019-04-10T15:34:55.815Z,58.73
2019-04-10T15:37:24.911Z,72.37
2019-04-10T15:39:53.928Z,74.00
2019-04-10T15:42:23.790Z,73.40
2019-04-10T15:44:52.578Z,70.97
2019-04-10T15:47:23.084Z,66.47
2019-04-10T15:49:51.708Z,69.27
2019-04-10T15:52:20.373Z,68.10
2019-04-10T15:54:49.936Z,67.03
2019-04-10T15:57:18.905Z,66.20
2019-04-10T15:59:48.323Z,69.10
2019-04-10T16:02:17.078Z,74.83
2019-04-10T16:04:45.696Z,63.03
2019-04-10T16:07:14.979Z,63.00
2019-04-10T16:09:49.887Z,72.63
2019-04-10T16:12:16.589Z,74.63
2019-04-10T16:14:46.478Z,51.47
2019-04-10T16:17:29.383Z,62.97
2019-04-10T16:20:00.152Z,72.73
2019-04-10T16:22:31.215Z,68.53
2019-04-10T16:27:36.986Z,66.23
2019-04-10T16:30:08.189Z,67.87
2019-04-10T16:32:37.018Z,60.90
2019-04-10T16:35:07.172Z,69.03
2019-04-10T16:37:35.635Z,59.43
2019-04-10T16:40:08.495Z,65.13
2019-04-10T16:42:36.978Z,58.10
2019-04-10T16:45:06.094Z,63.67
2019-04-10T16:47:34.785Z,58.30
2019-04-10T16:50:05.628Z,61.63
2019-04-10T16:52:34.175Z,65.97
2019-04-10T16:55:02.926Z,71.53
2019-04-10T16:57:31.573Z,71.20
2019-04-10T17:00:00.153Z,71.30
2019-04-10T17:02:28.705Z,56.40
2019-04-10T17:04:58.443Z,60.53
2019-04-10T17:07:27.292Z,60.77
2019-04-10T17:09:56.686Z,63.67
2019-04-10T17:12:25.699Z,65.03
2019-04-10T17:14:55.410Z,67.60
2019-04-10T17:17:24.262Z,52.33
2019-04-10T17:19:57.274Z,58.30
2019-04-10T17:22:33.167Z,63.90
2019-04-10T17:24:53.800Z,68.50
2019-04-10T17:27:23.549Z,58.70
2019-04-10T17:29:53.497Z,64.30
2019-04-10T17:32:23.444Z,64.30
2019-04-10T17:34:52.135Z,64.00
2019-04-10T17:37:21.316Z,67.07
2019-04-10T17:39:49.942Z,61.33
2019-04-10T17:42:19.933Z,60.50
2019-04-10T17:44:49.739Z,66.10
2019-04-10T17:47:18.580Z,70.97
2019-04-10T17:49:47.687Z,67.53
2019-04-10T17:52:16.647Z,63.13
2019-04-10T17:54:45.273Z,59.37
2019-04-10T17:57:14.816Z,65.57
2019-04-10T17:59:44.732Z,57.57
2019-04-10T18:02:13.781Z,59.77
2019-04-10T18:04:42.438Z,59.13
2019-04-10T18:07:12.046Z,67.47
2019-04-10T18:09:40.958Z,63.73
2019-04-10T18:12:10.633Z,61.27
2019-04-10T18:14:40.890Z,65.63
2019-04-10T18:17:10.760Z,73.40
2019-04-10T18:19:39.532Z,67.40
2019-04-10T18:22:08.105Z,71.93
2019-04-10T18:24:36.730Z,59.87
2019-04-10T18:27:05.828Z,59.23
2019-04-10T18:29:35.074Z,59.23
2019-04-10T18:32:03.872Z,68.93
2019-04-10T18:34:33.361Z,61.77
2019-04-10T18:37:02.878Z,59.47
2019-04-10T18:39:32.625Z,60.43
2019-04-10T18:42:01.420Z,62.97
2019-04-10T18:44:31.072Z,63.77
2019-04-10T18:47:00.669Z,66.70
2019-04-10T18:49:29.556Z,59.93
2019-04-10T18:51:58.406Z,52.83
2019-04-10T18:54:27.061Z,71.17
2019-04-10T18:56:55.715Z,57.37
2019-04-10T18:59:26.887Z,61.33
2019-04-10T19:01:57.128Z,66.03
2019-04-10T19:04:43.573Z,64.83
2019-04-10T19:07:13.193Z,58.33
2019-04-10T19:09:42.858Z,60.60
2019-04-10T19:12:12.630Z,61.80
2019-04-10T19:14:42.459Z,62.93
2019-04-10T19:17:11.270Z,58.67
2019-04-10T19:19:42.222Z,64.70
2019-04-10T19:22:12.992Z,66.87
2019-04-10T19:24:41.670Z,60.33
2019-04-10T19:27:10.245Z,68.27
2019-04-10T19:29:38.830Z,59.30
2019-04-10T19:32:10.007Z,57.27
2019-04-10T19:34:39.256Z,59.97
2019-04-10T19:37:08.138Z,58.77
2019-04-10T19:39:36.742Z,56.77
2019-04-10T19:42:05.859Z,56.77
2019-04-10T19:44:35.138Z,67.10
2019-04-10T19:47:04.193Z,66.60
2019-04-10T19:49:32.937Z,64.27
2019-04-10T19:52:02.333Z,63.00
2019-04-10T19:54:31.563Z,68.50
2019-04-10T19:57:01.214Z,61.43
2019-04-10T19:59:29.933Z,60.73
2019-04-10T20:01:58.278Z,67.77
2019-04-10T20:04:26.810Z,67.47
2019-04-10T20:06:56.362Z,60.87
2019-04-10T20:09:25.282Z,58.07
2019-04-10T20:11:56.161Z,62.47
2019-04-10T20:14:24.176Z,60.10
2019-04-10T20:16:52.712Z,58.90
2019-04-10T20:19:22.344Z,56.30
2019-04-10T20:21:51.045Z,59.73
2019-04-10T20:24:20.598Z,66.97
2019-04-10T20:26:49.649Z,57.50
2019-04-10T20:29:19.115Z,59.33
2019-04-10T20:31:49.830Z,62.80
2019-04-10T20:34:19.149Z,58.17
2019-04-10T20:36:48.991Z,59.30
2019-04-10T20:39:18.006Z,63.47
2019-04-10T20:41:53.290Z,56.93
2019-04-10T20:44:16.877Z,52.13
2019-04-10T20:46:46.342Z,54.13
2019-04-10T20:49:16.207Z,49.13
2019-04-10T20:51:45.983Z,53.37
2019-04-10T20:54:15.193Z,57.13
2019-04-10T20:56:43.791Z,53.07
2019-04-10T20:59:12.331Z,54.13
2019-04-10T21:01:41.502Z,48.20
2019-04-10T21:04:10.090Z,46.30
2019-04-10T21:06:41.622Z,49.80
2019-04-10T21:09:09.721Z,50.30
2019-04-10T21:11:38.424Z,48.40
2019-04-10T21:14:07.333Z,56.40
2019-04-10T21:16:35.911Z,43.13
2019-04-10T21:19:04.590Z,45.13
2019-04-10T21:21:33.144Z,41.60
2019-04-10T21:24:02.989Z,39.57
2019-04-10T21:26:32.474Z,39.63
2019-04-10T21:29:02.363Z,43.30
2019-04-10T21:31:36.348Z,42.07
2019-04-10T21:34:07.652Z,43.43
2019-04-10T21:36:37.440Z,28.70
2019-04-10T21:39:07.898Z,37.67
2019-04-10T21:41:36.876Z,42.00
2019-04-10T21:44:06.417Z,36.00
2019-04-10T21:46:35.081Z,35.73
2019-04-10T21:49:03.741Z,36.37
2019-04-10T21:51:33.456Z,37.20
2019-04-10T21:54:02.309Z,38.63
2019-04-10T21:56:30.995Z,34.27
2019-04-10T21:58:59.324Z,38.60
2019-04-10T22:01:28.413Z,32.60
2019-04-10T22:03:58.337Z,32.23
2019-04-10T22:06:31.095Z,24.00
2019-04-10T22:09:04.120Z,27.87
2019-04-10T22:11:32.949Z,19.67
2019-04-10T22:14:02.388Z,24.03
2019-04-10T22:16:31.253Z,25.47
2019-04-10T22:18:59.548Z,18.53
2019-04-10T22:21:29.097Z,20.03
2019-04-10T22:23:58.642Z,19.83
2019-04-10T22:26:27.736Z,20.90
2019-04-10T22:28:56.875Z,13.07
2019-04-10T22:31:26.169Z,13.47
2019-04-10T22:33:54.713Z,20.83
2019-04-10T22:36:23.276Z,20.80
2019-04-10T22:38:51.903Z,18.60
2019-04-10T22:41:27.124Z,21.40
2019-04-10T22:43:49.928Z,15.93
2019-04-10T22:46:19.323Z,20.37
2019-04-10T22:48:48.018Z,17.53
2019-04-10T22:51:17.164Z,19.17
2019-04-10T22:53:45.906Z,13.87
2019-04-10T22:56:15.017Z,14.30
2019-04-10T22:58:44.194Z,14.33
2019-04-10T23:01:13.190Z,15.97
2019-04-10T23:03:43.080Z,13.93
2019-04-10T23:06:11.746Z,15.10
2019-04-10T23:08:39.961Z,12.93
2019-04-10T23:11:09.758Z,13.70
2019-04-10T23:13:38.408Z,11.83
2019-04-10T23:16:08.888Z,12.00
2019-04-10T23:18:37.508Z,12.27
2019-04-10T23:21:06.220Z,14.40
2019-04-10T23:23:34.938Z,14.50
2019-04-10T23:26:04.751Z,14.13
2019-04-10T23:28:33.756Z,11.80
2019-04-10T23:31:03.529Z,13.00
2019-04-10T23:33:33.017Z,14.97
2019-04-10T23:36:02.102Z,12.97
2019-04-10T23:38:31.187Z,17.50
2019-04-10T23:40:59.736Z,15.47
2019-04-10T23:43:29.371Z,14.77
2019-04-10T23:45:58.125Z,12.23
2019-04-10T23:48:26.696Z,12.37
2019-04-10T23:50:55.242Z,13.73
2019-04-10T23:53:24.608Z,18.37
2019-04-10T23:55:54.409Z,20.03
2019-04-10T23:58:24.219Z,12.13
